Time;durP1;ratioP1;P1;durP2;ratioP2;P2;SDS_P1;SDS_P2;PMS_P1;PMS_P2;Temp;Humidity;BMP_temperature;BMP_pressure;BME280_temperature;BME280_humidity;BME280_pressure;Samples;Min_cycle;Max_cycle;Signal;HPM_P1;HPM_P2
2022/09/25 00:00:54;;;;;;;1.65;1.30;;;;;;;8.72;89.15;97147.13;5071408;28;20119;-59
2022/09/25 00:03:21;;;;;;;2.25;1.30;;;;;;;8.69;88.67;97137.91;5071212;28;20046;-58
2022/09/25 00:05:47;;;;;;;1.80;1.27;;;;;;;8.71;88.51;97146.34;5069938;28;20191;-58
2022/09/25 00:08:15;;;;;;;1.70;1.30;;;;;;;8.51;88.76;97149.19;5069600;28;20048;-59
2022/09/25 00:10:42;;;;;;;2.10;1.30;;;;;;;8.53;89.77;97153.13;5071323;28;20516;-58
2022/09/25 00:13:08;;;;;;;1.90;1.30;;;;;;;8.51;89.30;97163.19;5069679;28;20044;-57
2022/09/25 00:15:34;;;;;;;1.42;1.10;;;;;;;8.44;88.18;97167.97;5087108;28;20493;-59
2022/09/25 00:17:59;;;;;;;1.38;1.10;;;;;;;8.34;87.68;97160.91;5075722;28;20106;-56
2022/09/25 00:20:26;;;;;;;1.30;1.10;;;;;;;8.22;87.72;97176.31;5071199;28;20075;-56
2022/09/25 00:22:52;;;;;;;1.00;1.00;;;;;;;8.07;88.75;97171.94;5070751;28;20417;-56
2022/09/25 00:25:19;;;;;;;3.67;1.10;;;;;;;8.04;88.60;97179.63;5053103;28;20063;-55
2022/09/25 00:27:47;;;;;;;2.97;0.80;;;;;;;7.99;88.59;97177.81;5069765;28;20056;-55
2022/09/25 00:30:13;;;;;;;0.75;0.75;;;;;;;7.95;89.03;97174.94;5071013;28;20503;-55
2022/09/25 00:32:39;;;;;;;1.05;0.90;;;;;;;7.86;88.97;97178.44;5069840;28;20414;-56
2022/09/25 00:35:05;;;;;;;1.25;0.88;;;;;;;7.78;89.17;97192.97;5070919;28;20070;-56
2022/09/25 00:37:35;;;;;;;0.85;0.80;;;;;;;7.69;89.11;97187.47;5053028;28;20079;-59
2022/09/25 00:40:02;;;;;;;0.90;0.90;;;;;;;7.62;89.37;97192.28;5070867;28;20044;-59
2022/09/25 00:42:29;;;;;;;0.70;0.70;;;;;;;7.60;89.79;97202.28;5070900;28;20451;-59
2022/09/25 00:44:59;;;;;;;1.00;0.90;;;;;;;7.57;89.80;97192.28;5070804;28;20043;-58
2022/09/25 00:47:41;;;;;;;0.80;0.80;;;;;;;7.53;89.35;97191.25;5052412;28;20049;-60
2022/09/25 00:50:19;;;;;;;0.95;0.95;;;;;;;7.62;89.59;97196.75;5069617;28;20095;-59
2022/09/25 00:52:45;;;;;;;1.00;0.90;;;;;;;7.60;89.23;97189.09;5063753;28;20039;-59
2022/09/25 00:55:11;;;;;;;0.70;0.70;;;;;;;7.64;88.18;97219.13;5090913;28;20044;-57
2022/09/25 00:57:38;;;;;;;0.63;0.63;;;;;;;7.62;87.90;97202.81;5090721;28;20482;-59
2022/09/25 01:00:08;;;;;;;1.52;0.82;;;;;;;7.58;88.14;97209.69;5089745;28;20596;-57
2022/09/25 01:02:38;;;;;;;0.70;0.70;;;;;;;7.49;88.33;97206.81;5090906;28;20040;-59
2022/09/25 01:05:10;;;;;;;0.80;0.80;;;;;;;7.46;88.20;97210.00;5091145;28;20040;-59
2022/09/25 01:07:38;;;;;;;1.00;0.90;;;;;;;7.38;87.62;97202.66;5089377;28;20043;-58
2022/09/25 01:10:06;;;;;;;0.60;0.60;;;;;;;7.39;87.56;97201.59;5089561;28;20032;-60
2022/09/25 01:12:37;;;;;;;0.95;0.80;;;;;;;7.32;87.71;97206.34;5089231;28;20039;-58
2022/09/25 01:15:08;;;;;;;0.80;0.70;;;;;;;7.29;87.99;97212.16;5089472;28;20040;-56
2022/09/25 01:17:40;;;;;;;0.70;0.70;;;;;;;7.30;88.57;97220.88;5090527;28;20139;-56
2022/09/25 01:20:15;;;;;;;1.25;0.70;;;;;;;7.26;88.84;97223.25;5090865;28;20060;-56
2022/09/25 01:22:55;;;;;;;1.55;0.70;;;;;;;7.22;89.53;97222.22;5069063;28;20085;-59
2022/09/25 01:25:32;;;;;;;0.80;0.70;;;;;;;7.20;88.85;97224.31;5070666;28;20056;-59
2022/09/25 01:28:29;;;;;;;0.90;0.60;;;;;;;7.26;88.80;97223.25;5085806;28;20546;-59
2022/09/25 01:31:01;;;;;;;0.70;0.70;;;;;;;7.30;88.60;97228.78;5094422;28;20084;-58
2022/09/25 01:33:34;;;;;;;0.80;0.80;;;;;;;7.28;88.84;97235.09;5092993;28;20129;-58
2022/09/25 01:36:15;;;;;;;0.80;0.80;;;;;;;7.23;88.77;97239.59;5093187;28;20075;-59
2022/09/25 01:38:45;;;;;;;1.00;1.00;;;;;;;7.24;88.88;97228.78;5055727;28;20044;-58
2022/09/25 01:41:19;;;;;;;0.85;0.85;;;;;;;7.12;89.36;97235.41;5072791;28;20497;-58
2022/09/25 01:44:12;;;;;;;0.90;0.90;;;;;;;7.13;89.46;97240.41;5086779;28;20417;-59
2022/09/25 01:46:46;;;;;;;1.10;1.00;;;;;;;7.16;88.49;97249.63;5092803;28;20086;-58
2022/09/25 01:49:42;;;;;;;1.10;1.00;;;;;;;7.09;88.36;97235.94;5094069;28;20424;-57
2022/09/25 01:52:13;;;;;;;0.80;0.80;;;;;;;7.11;89.17;97253.06;5093751;28;20112;-57
2022/09/25 01:55:03;;;;;;;0.93;0.90;;;;;;;7.14;88.68;97249.09;5093534;28;20123;-57
2022/09/25 01:57:35;;;;;;;0.93;0.93;;;;;;;7.16;88.55;97252.28;5093537;28;20055;-58
2022/09/25 02:00:01;;;;;;;1.25;1.10;;;;;;;7.14;88.12;97247.25;5093969;28;20088;-59
2022/09/25 02:02:43;;;;;;;1.00;1.00;;;;;;;7.15;87.42;97262.03;5093581;28;20044;-60
2022/09/25 02:05:19;;;;;;;1.10;1.00;;;;;;;7.13;87.38;97260.72;5075853;28;20048;-57
2022/09/25 02:07:49;;;;;;;1.40;1.30;;;;;;;7.13;87.86;97263.34;5092142;28;20050;-57
2022/09/25 02:10:17;;;;;;;;;;;;;;;7.10;87.35;97269.94;5092599;28;20067;-57
2022/09/25 02:12:46;;;;;;;1.20;1.10;;;;;;;7.01;87.55;97271.53;5093653;28;19966;-57
2022/09/25 02:15:25;;;;;;;5.65;1.33;;;;;;;6.94;87.50;97269.16;5093003;28;20048;-56
2022/09/25 02:20:45;;;;;;;1.20;1.10;;;;;;;6.90;88.44;97270.75;5093547;28;20185;-57
2022/09/25 02:23:24;;;;;;;1.35;1.25;;;;;;;6.90;87.88;97273.38;5092101;28;20336;-56
2022/09/25 02:26:04;;;;;;;1.15;1.10;;;;;;;6.87;87.67;97268.63;5092169;28;20044;-57
2022/09/25 02:28:30;;;;;;;1.58;1.27;;;;;;;6.83;87.80;97275.50;5092976;28;20032;-56
2022/09/25 02:30:58;;;;;;;1.30;1.17;;;;;;;6.77;88.13;97271.28;5093215;28;20448;-57
2022/09/25 02:33:25;;;;;;;1.15;1.05;;;;;;;6.77;88.04;97274.72;5091778;28;20040;-53
2022/09/25 02:35:51;;;;;;;1.15;1.05;;;;;;;6.71;88.08;97272.34;5074827;28;20048;-56
2022/09/25 02:38:17;;;;;;;2.92;1.05;;;;;;;6.76;88.15;97275.75;5093049;28;20176;-55
2022/09/25 02:41:15;;;;;;;1.20;1.10;;;;;;;6.82;87.61;97271.25;5092946;28;20056;-55
2022/09/25 02:43:40;;;;;;;1.10;1.00;;;;;;;6.77;88.45;97276.56;5058677;28;20427;-54
2022/09/25 02:46:09;;;;;;;1.05;1.00;;;;;;;6.75;87.96;97276.81;5092785;28;20052;-56
2022/09/25 02:48:49;;;;;;;0.85;0.85;;;;;;;6.77;87.53;97276.56;5092911;28;20040;-54
2022/09/25 02:51:23;;;;;;;1.38;1.10;;;;;;;6.76;87.35;97277.59;5092916;28;20048;-56
2022/09/25 02:53:58;;;;;;;1.20;1.10;;;;;;;6.75;87.60;97289.19;5092806;28;20040;-57
2022/09/25 02:56:34;;;;;;;2.17;1.27;;;;;;;6.70;88.87;97278.66;5071376;28;20060;-57
2022/09/25 02:59:06;;;;;;;2.55;1.42;;;;;;;6.71;88.89;97285.50;5072334;28;20040;-58
2022/09/25 03:01:34;;;;;;;4.68;1.50;;;;;;;6.71;88.66;97296.03;5090652;28;20135;-59
2022/09/25 03:04:00;;;;;;;1.63;1.33;;;;;;;6.68;89.04;97291.31;5074584;28;20040;-58
2022/09/25 03:06:26;;;;;;;2.88;1.20;;;;;;;6.67;88.95;97303.66;5091305;28;20035;-58
2022/09/25 03:08:55;;;;;;;1.50;1.40;;;;;;;6.66;88.72;97304.72;5074452;28;20104;-58
2022/09/25 03:11:25;;;;;;;2.20;1.40;;;;;;;6.66;89.00;97302.09;5071249;28;20440;-56
2022/09/25 03:13:55;;;;;;;1.90;1.55;;;;;;;6.58;89.44;97300.75;5072264;28;20044;-57
2022/09/25 03:16:56;;;;;;;1.57;1.47;;;;;;;6.62;89.31;97300.22;5089057;28;20043;-58
2022/09/25 03:19:24;;;;;;;3.60;2.20;;;;;;;6.63;89.45;97304.47;5090906;28;20048;-58
2022/09/25 03:21:50;;;;;;;8.25;2.10;;;;;;;6.52;89.63;97291.28;5091221;28;20047;-60
2022/09/25 03:24:17;;;;;;;1.70;1.42;;;;;;;6.59;89.49;97306.84;5090682;28;20420;-59
2022/09/25 03:26:43;;;;;;;3.75;1.70;;;;;;;6.59;89.81;97309.47;5092526;28;20511;-60
2022/09/25 03:29:11;;;;;;;5.07;1.50;;;;;;;6.67;89.01;97306.28;5092529;28;20469;-59
2022/09/25 03:31:38;;;;;;;1.83;1.40;;;;;;;6.73;88.92;97307.09;5092414;28;20048;-60
2022/09/25 03:34:04;;;;;;;1.77;1.50;;;;;;;6.73;89.36;97320.25;5092383;28;20119;-60
2022/09/25 03:36:30;;;;;;;1.10;1.02;;;;;;;6.76;89.03;97309.19;5091644;28;20131;-60
2022/09/25 03:38:57;;;;;;;2.30;1.40;;;;;;;6.78;88.73;97317.63;5092048;28;20070;-60
2022/09/25 03:41:28;;;;;;;1.83;1.30;;;;;;;6.81;88.34;97322.38;5092169;28;20036;-60
2022/09/25 03:43:55;;;;;;;0.95;0.95;;;;;;;6.82;88.83;97319.47;5092113;28;20051;-60
2022/09/25 03:46:26;;;;;;;3.60;1.20;;;;;;;6.78;87.90;97313.13;5091975;28;20048;-59
2022/09/25 03:48:54;;;;;;;1.40;1.20;;;;;;;6.82;88.06;97324.75;5091422;28;20412;-60
2022/09/25 03:51:20;;;;;;;1.30;1.20;;;;;;;6.83;88.60;97323.69;5091978;28;20078;-60
2022/09/25 03:53:46;;;;;;;1.73;1.48;;;;;;;6.87;88.42;97317.88;5091741;28;20048;-59
2022/09/25 03:56:15;;;;;;;1.42;1.25;;;;;;;6.90;88.19;97326.03;5090524;28;20056;-58
2022/09/25 03:58:42;;;;;;;1.90;1.40;;;;;;;6.93;87.94;97328.16;5091644;28;20161;-60
2022/09/25 04:01:09;;;;;;;2.22;1.20;;;;;;;6.93;87.74;97330.00;5090483;28;20052;-59
2022/09/25 04:03:36;;;;;;;2.65;1.40;;;;;;;6.90;87.73;97333.94;5091907;28;20408;-59
2022/09/25 04:06:06;;;;;;;1.42;1.33;;;;;;;6.93;87.62;97335.28;5091563;28;20032;-59
2022/09/25 04:08:33;;;;;;;2.03;1.42;;;;;;;6.92;87.51;97328.44;5091687;28;20040;-58
2022/09/25 04:11:00;;;;;;;2.78;1.58;;;;;;;6.88;88.21;97338.69;5090229;28;20047;-59
2022/09/25 04:13:31;;;;;;;2.03;1.20;;;;;;;6.94;88.42;97347.38;5091185;28;20047;-59
2022/09/25 04:15:57;;;;;;;1.27;1.17;;;;;;;6.95;88.18;97339.22;5091145;28;20367;-60
2022/09/25 04:18:24;;;;;;;1.90;1.60;;;;;;;6.99;88.46;97347.38;5090200;28;20039;-59
2022/09/25 04:20:50;;;;;;;2.65;1.40;;;;;;;6.94;88.22;97350.81;5091091;28;20573;-61
2022/09/25 04:23:16;;;;;;;1.15;1.10;;;;;;;6.93;87.84;97356.34;5091243;28;20127;-59
2022/09/25 04:25:42;;;;;;;1.38;1.20;;;;;;;6.97;88.26;97347.66;5091307;28;20046;-61
2022/09/25 04:28:08;;;;;;;1.58;1.48;;;;;;;6.92;88.05;97357.41;5091219;28;20115;-59
2022/09/25 04:30:34;;;;;;;1.30;1.20;;;;;;;6.85;88.24;97357.63;5091247;28;20050;-60
2022/09/25 04:35:45;;;;;;;2.05;1.50;;;;;;;6.93;88.27;97365.03;5091004;28;20044;-60
2022/09/25 04:38:10;;;;;;;1.40;1.30;;;;;;;7.00;88.48;97373.47;5091255;28;20051;-60
2022/09/25 04:40:36;;;;;;;1.25;1.10;;;;;;;7.08;88.72;97368.72;5091007;28;20044;-60
2022/09/25 04:43:04;;;;;;;2.53;1.27;;;;;;;7.15;87.51;97371.91;5091459;28;20440;-60
2022/09/25 04:45:33;;;;;;;2.17;1.90;;;;;;;7.17;87.15;97372.41;5090995;28;20047;-58
2022/09/25 04:47:59;;;;;;;2.58;1.80;;;;;;;7.20;86.69;97374.50;5091276;28;20074;-57
2022/09/25 04:50:26;;;;;;;1.60;1.50;;;;;;;7.19;87.45;97381.63;5091199;28;20044;-59
2022/09/25 04:52:56;;;;;;;2.97;1.42;;;;;;;7.26;87.13;97384.81;5089987;28;20051;-58
2022/09/25 04:55:23;;;;;;;1.17;1.08;;;;;;;7.31;87.25;97388.47;5089674;28;20044;-59
2022/09/25 04:57:53;;;;;;;1.00;1.00;;;;;;;7.37;87.24;97387.41;5089681;28;20122;-58
2022/09/25 05:00:19;;;;;;;;;;;;;;;7.45;87.51;97381.63;5089993;28;20042;-59
2022/09/25 05:02:48;;;;;;;1.27;1.17;;;;;;;7.50;87.01;97389.53;5094498;28;20287;-57
2022/09/25 05:05:14;;;;;;;2.28;1.20;;;;;;;7.56;86.68;97392.91;5093539;28;20063;-58
2022/09/25 05:07:53;;;;;;;1.40;1.30;;;;;;;7.59;86.55;97392.38;5093776;28;20047;-57
2022/09/25 05:10:20;;;;;;;1.70;1.60;;;;;;;7.60;86.72;97402.69;5094898;28;20044;-58
2022/09/25 05:12:46;;;;;;;1.50;1.30;;;;;;;7.51;86.82;97404.28;5093314;28;20048;-58
2022/09/25 05:15:12;;;;;;;1.40;1.20;;;;;;;7.41;87.28;97407.72;5094658;28;20443;-55
2022/09/25 05:17:38;;;;;;;2.42;1.52;;;;;;;7.30;87.24;97403.50;5094898;28;20039;-58
2022/09/25 05:20:04;;;;;;;2.10;1.40;;;;;;;7.20;88.18;97411.41;5094514;28;20048;-59
2022/09/25 05:22:30;;;;;;;1.60;1.42;;;;;;;7.13;88.60;97408.25;5076209;28;20036;-58
2022/09/25 05:24:55;;;;;;;1.45;1.35;;;;;;;7.08;88.86;97416.16;5094764;28;20085;-58
2022/09/25 05:27:22;;;;;;;2.20;1.98;;;;;;;6.95;89.30;97417.47;5094201;28;20515;-59
2022/09/25 05:29:48;;;;;;;2.38;1.90;;;;;;;6.90;90.07;97418.22;5094556;28;20051;-56
2022/09/25 05:32:15;;;;;;;4.15;2.10;;;;;;;6.81;89.92;97425.84;5094640;28;20593;-60
2022/09/25 05:34:40;;;;;;;2.30;2.08;;;;;;;6.81;89.90;97428.47;5076520;28;20040;-59
2022/09/25 05:37:06;;;;;;;2.92;2.25;;;;;;;6.80;89.65;97424.28;5076259;28;20108;-59
2022/09/25 05:39:32;;;;;;;3.10;2.40;;;;;;;6.70;90.00;97426.88;5094517;28;20562;-58
2022/09/25 05:41:57;;;;;;;4.85;2.67;;;;;;;6.66;90.19;97428.47;5094368;28;20051;-56
2022/09/25 05:44:23;;;;;;;6.53;3.53;;;;;;;6.63;90.83;97438.72;5094220;28;20077;-60
2022/09/25 05:46:49;;;;;;;4.50;2.90;;;;;;;6.65;91.10;97431.34;5094292;28;20048;-60
2022/09/25 05:49:15;;;;;;;3.58;3.03;;;;;;;6.62;89.89;97439.75;5092923;28;20066;-59
2022/09/25 05:51:40;;;;;;;4.78;3.38;;;;;;;6.66;90.16;97446.88;5092467;28;20055;-58
2022/09/25 05:54:06;;;;;;;4.70;3.30;;;;;;;6.71;90.39;97449.53;5092759;28;20040;-60
2022/09/25 05:56:32;;;;;;;7.45;5.07;;;;;;;6.74;90.43;97453.50;5093453;28;20123;-60
2022/09/25 05:58:58;;;;;;;5.90;4.20;;;;;;;6.82;90.20;97453.78;5075858;28;20101;-61
2022/09/25 06:01:23;;;;;;;4.88;4.03;;;;;;;6.86;89.55;97448.00;5094002;28;20546;-59
2022/09/25 06:03:49;;;;;;;5.00;3.67;;;;;;;6.79;89.51;97450.84;5092519;28;20044;-60
2022/09/25 06:06:14;;;;;;;2.65;2.40;;;;;;;6.74;89.75;97458.78;5093960;28;20051;-59
2022/09/25 06:08:40;;;;;;;2.42;1.95;;;;;;;6.77;89.92;97460.88;5094097;28;20448;-55
2022/09/25 06:11:07;;;;;;;2.60;2.10;;;;;;;6.79;89.61;97458.75;5094085;28;20047;-57
2022/09/25 06:13:35;;;;;;;3.70;2.47;;;;;;;6.75;89.50;97461.13;5093139;28;20036;-60
2022/09/25 06:16:01;;;;;;;2.95;2.28;;;;;;;6.78;90.14;97459.81;5093922;28;20044;-55
2022/09/25 06:18:27;;;;;;;2.20;1.80;;;;;;;6.72;89.59;97463.50;5093317;28;20116;-60
2022/09/25 06:20:59;;;;;;;4.57;2.83;;;;;;;6.70;89.47;97465.59;5093585;28;20131;-58
2022/09/25 06:23:24;;;;;;;3.22;2.03;;;;;;;6.78;89.34;97473.78;5093404;28;20044;-56
2022/09/25 06:25:50;;;;;;;3.15;1.92;;;;;;;6.80;88.82;97469.03;5094200;28;20047;-58
2022/09/25 06:28:16;;;;;;;2.20;2.00;;;;;;;6.77;89.26;97471.41;5093016;28;20105;-57
2022/09/25 06:30:41;;;;;;;2.45;2.20;;;;;;;6.65;89.03;97450.59;5075256;28;20101;-57
2022/09/25 06:33:12;;;;;;;3.00;1.70;;;;;;;6.86;88.11;97477.75;5092465;28;20455;-56
2022/09/25 06:35:46;;;;;;;2.13;1.63;;;;;;;6.86;88.41;97480.38;5093866;28;20044;-58
2022/09/25 06:38:13;;;;;;;2.13;1.70;;;;;;;7.01;88.85;97492.81;5093183;28;20138;-59
2022/09/25 06:40:39;;;;;;;2.03;1.70;;;;;;;7.16;87.46;97489.41;5092101;28;20090;-57
2022/09/25 06:43:08;;;;;;;3.28;2.13;;;;;;;7.19;86.34;97483.59;5055269;28;20040;-57
2022/09/25 06:45:34;;;;;;;4.20;2.00;;;;;;;7.21;86.29;97499.97;5056365;28;20044;-58
2022/09/25 06:48:02;;;;;;;1.42;1.30;;;;;;;7.31;86.14;97499.19;5072618;28;20047;-58
2022/09/25 06:50:38;;;;;;;2.03;1.67;;;;;;;7.33;85.03;97500.50;5073203;28;20421;-60
2022/09/25 06:53:03;;;;;;;4.47;2.45;;;;;;;7.23;84.79;97498.63;5061130;28;20060;-59
2022/09/25 06:55:33;;;;;;;4.35;2.45;;;;;;;7.24;85.26;97504.72;5071916;28;20600;-60
2022/09/25 06:58:00;;;;;;;;;;;;;;;7.32;86.14;97506.81;5079728;28;20040;-60
2022/09/25 07:00:26;;;;;;;2.13;1.73;;;;;;;7.36;86.26;97501.81;5091718;28;19966;-61
2022/09/25 07:05:36;;;;;;;4.07;3.03;;;;;;;7.38;85.82;97513.69;5092792;28;20687;-61
2022/09/25 07:08:02;;;;;;;2.55;1.98;;;;;;;7.36;86.18;97523.69;5074521;28;20044;-61
2022/09/25 07:10:28;;;;;;;4.85;2.67;;;;;;;7.29;86.34;97515.22;5092642;28;20040;-61
2022/09/25 07:12:54;;;;;;;3.28;2.65;;;;;;;7.28;85.24;97522.34;5072807;28;20028;-62
2022/09/25 07:15:19;;;;;;;1.90;1.80;;;;;;;7.36;84.68;97525.53;5071187;28;20408;-62
2022/09/25 07:17:45;;;;;;;3.72;2.25;;;;;;;7.42;84.64;97512.09;5074669;28;20483;-60
2022/09/25 07:20:14;;;;;;;2.83;1.70;;;;;;;7.66;82.85;97525.56;5092413;28;20082;-61
2022/09/25 07:22:40;;;;;;;3.58;1.48;;;;;;;7.86;82.18;97532.69;5090717;28;20040;-59
2022/09/25 07:25:08;;;;;;;2.05;1.80;;;;;;;7.99;81.75;97533.19;5091677;28;20039;-62
2022/09/25 07:27:34;;;;;;;2.53;1.75;;;;;;;7.99;80.66;97539.25;5091092;28;20051;-62
2022/09/25 07:30:00;;;;;;;2.03;1.83;;;;;;;7.84;81.05;97534.78;5090592;28;20122;-62
2022/09/25 07:32:26;;;;;;;4.07;2.40;;;;;;;7.88;82.16;97545.59;5092321;28;20044;-62
2022/09/25 07:34:51;;;;;;;5.57;1.50;;;;;;;7.85;81.01;97544.28;5091792;28;20048;-60
2022/09/25 07:37:17;;;;;;;1.88;1.67;;;;;;;7.77;82.08;97559.84;5091935;28;20051;-59
2022/09/25 07:39:43;;;;;;;2.03;1.80;;;;;;;7.79;82.35;97560.38;5091782;28;20047;-60
2022/09/25 07:42:09;;;;;;;2.85;1.65;;;;;;;7.76;81.51;97569.59;5092078;28;20051;-59
2022/09/25 07:44:35;;;;;;;1.83;1.60;;;;;;;7.68;80.82;97570.13;5080077;28;20036;-64
2022/09/25 07:47:02;;;;;;;2.08;1.77;;;;;;;7.64;81.34;97577.75;5070171;28;20048;-61
2022/09/25 07:49:31;;;;;;;1.73;1.63;;;;;;;7.57;81.40;97582.50;5071598;28;20046;-65
2022/09/25 07:51:56;;;;;;;2.08;1.73;;;;;;;7.58;81.15;97576.16;5071871;28;20051;-62
2022/09/25 07:54:23;;;;;;;2.55;1.70;;;;;;;7.51;81.14;97589.63;5070234;28;20037;-64
2022/09/25 07:56:49;;;;;;;2.30;1.85;;;;;;;7.39;81.70;97575.09;5071635;28;20454;-62
2022/09/25 07:59:14;;;;;;;2.60;2.22;;;;;;;7.36;82.20;97591.44;5071524;28;20135;-64
2022/09/25 08:01:40;;;;;;;3.40;2.33;;;;;;;7.33;82.26;97595.38;5070244;28;20044;-62
2022/09/25 08:04:06;;;;;;;4.47;2.58;;;;;;;7.36;82.60;97600.13;5070285;28;20055;-63
2022/09/25 08:06:35;;;;;;;3.55;2.40;;;;;;;7.37;82.16;97593.81;5070295;28;20547;-62
2022/09/25 08:09:00;;;;;;;2.63;2.10;;;;;;;7.51;81.64;97610.72;5082048;28;20047;-62
2022/09/25 08:11:27;;;;;;;2.70;2.15;;;;;;;7.51;81.10;97607.28;5090364;28;20069;-63
2022/09/25 08:13:53;;;;;;;4.30;2.03;;;;;;;7.54;80.58;97608.63;5091293;28;20054;-60
2022/09/25 08:16:21;;;;;;;2.45;2.13;;;;;;;7.54;81.30;97619.16;5056846;28;20551;-62
2022/09/25 08:18:48;;;;;;;4.05;2.75;;;;;;;7.55;80.62;97615.47;5090179;28;20066;-59
2022/09/25 08:21:19;;;;;;;4.20;3.00;;;;;;;7.53;81.20;97633.38;5090326;28;20044;-62
2022/09/25 08:23:49;;;;;;;3.95;2.55;;;;;;;7.37;81.02;97628.06;5091282;28;20123;-62
2022/09/25 08:26:16;;;;;;;5.00;2.47;;;;;;;7.29;81.40;97644.38;5090474;28;20040;-61
2022/09/25 08:28:43;;;;;;;4.28;2.53;;;;;;;7.25;81.81;97630.94;5089845;28;20127;-61
2022/09/25 08:31:09;;;;;;;2.65;2.20;;;;;;;7.37;81.70;97632.56;5091688;28;20066;-60
2022/09/25 08:33:35;;;;;;;4.35;2.85;;;;;;;7.42;81.58;97637.84;5073117;28;20040;-59
2022/09/25 08:36:02;;;;;;;6.00;3.42;;;;;;;7.46;81.33;97649.44;5092029;28;20063;-60
2022/09/25 08:38:30;;;;;;;4.88;3.55;;;;;;;7.55;80.68;97644.47;5095353;28;20036;-59
2022/09/25 08:41:07;;;;;;;5.07;3.03;;;;;;;7.61;80.46;97648.69;5095466;28;20079;-58
2022/09/25 08:43:36;;;;;;;4.78;2.78;;;;;;;7.67;79.05;97656.34;5093640;28;20036;-60
2022/09/25 08:49:08;;;;;;;3.50;2.47;;;;;;;7.91;78.33;97661.94;5093999;28;20424;-58
2022/09/25 08:51:43;;;;;;;4.65;2.55;;;;;;;7.83;78.93;97675.66;5095611;28;20098;-61
2022/09/25 08:54:21;;;;;;;3.72;2.80;;;;;;;7.83;79.74;97673.00;5094976;28;20040;-60
2022/09/25 08:56:54;;;;;;;3.90;2.95;;;;;;;7.82;80.96;97683.81;5095347;28;20102;-61
2022/09/25 08:59:30;;;;;;;5.40;2.97;;;;;;;7.79;81.82;97692.25;5095129;28;20466;-58
2022/09/25 09:02:02;;;;;;;3.65;2.40;;;;;;;7.69;81.34;97688.53;5095366;28;20048;-59
2022/09/25 09:04:33;;;;;;;4.05;2.65;;;;;;;7.66;81.20;97689.06;5094753;28;20051;-61
2022/09/25 09:07:08;;;;;;;5.40;3.00;;;;;;;7.67;82.20;97689.84;5095446;28;20500;-58
2022/09/25 09:09:40;;;;;;;4.43;2.50;;;;;;;7.80;82.02;97691.22;5077027;28;20050;-58
2022/09/25 09:12:17;;;;;;;4.15;2.72;;;;;;;8.00;81.12;97696.53;5093805;28;20048;-59
2022/09/25 09:14:45;;;;;;;5.85;3.92;;;;;;;8.19;79.00;97699.44;5094299;28;20039;-62
2022/09/25 09:17:17;;;;;;;3.95;2.83;;;;;;;8.22;78.36;97695.50;5076860;28;20097;-62
2022/09/25 09:19:47;;;;;;;4.10;2.90;;;;;;;8.45;77.86;97700.28;5093477;28;20537;-61
2022/09/25 09:22:16;;;;;;;4.28;2.70;;;;;;;8.54;77.77;97705.81;5093433;28;20040;-58
2022/09/25 09:24:53;;;;;;;4.50;2.35;;;;;;;8.57;76.24;97706.06;5092258;28;20063;-62
2022/09/25 09:27:35;;;;;;;4.05;2.90;;;;;;;8.65;76.89;97704.75;5075248;28;20459;-60
2022/09/25 09:30:09;;;;;;;3.45;2.65;;;;;;;8.62;75.52;97714.00;5092355;28;20451;-60
2022/09/25 09:32:44;;;;;;;3.10;2.33;;;;;;;8.53;73.67;97707.69;5093690;28;20036;-60
2022/09/25 09:35:28;;;;;;;3.15;2.28;;;;;;;8.40;73.89;97716.13;5093636;28;20101;-61
2022/09/25 09:37:57;;;;;;;4.70;2.80;;;;;;;8.32;75.52;97716.59;5093664;28;20040;-59
2022/09/25 09:40:32;;;;;;;3.25;2.25;;;;;;;8.27;74.92;97722.69;5092893;28;20496;-61
2022/09/25 09:43:28;;;;;;;4.70;2.72;;;;;;;8.32;76.08;97727.16;5093113;28;20040;-60
2022/09/25 09:46:20;;;;;;;3.67;2.53;;;;;;;8.30;75.92;97724.81;5094309;28;20055;-59
2022/09/25 09:49:05;;;;;;;4.38;2.83;;;;;;;8.33;76.40;97729.56;5093603;28;20043;-61
2022/09/25 09:51:39;;;;;;;4.45;2.65;;;;;;;8.42;76.75;97735.13;5075751;28;20051;-60
2022/09/25 09:54:09;;;;;;;6.53;3.40;;;;;;;8.47;77.52;97731.69;5094339;28;20456;-59
2022/09/25 09:56:35;;;;;;;3.75;2.72;;;;;;;8.52;77.04;97729.06;5093270;28;20040;-59
2022/09/25 09:59:22;;;;;;;3.97;3.00;;;;;;;8.50;76.59;97736.44;5094309;28;20523;-59
2022/09/25 10:02:08;;;;;;;5.57;3.65;;;;;;;8.49;76.67;97734.88;5092926;28;20102;-59
2022/09/25 10:04:36;;;;;;;4.85;3.20;;;;;;;8.49;75.38;97740.94;5092507;28;20062;-61
2022/09/25 10:07:05;;;;;;;5.65;3.55;;;;;;;8.49;76.99;97742.78;5092610;28;20063;-59
2022/09/25 10:09:31;;;;;;;7.45;4.70;;;;;;;8.49;76.19;97746.22;5092616;28;20035;-59
2022/09/25 10:12:28;;;;;;;3.70;3.05;;;;;;;8.47;76.08;97751.00;5092210;28;20466;-58
2022/09/25 10:14:55;;;;;;;5.57;3.70;;;;;;;8.37;77.14;97753.56;5088933;28;20051;-58
2022/09/25 10:17:22;;;;;;;5.95;3.55;;;;;;;8.32;76.96;97756.19;5092136;28;20127;-58
2022/09/25 10:19:56;;;;;;;5.68;3.75;;;;;;;8.29;75.88;97760.16;5075128;28;20515;-60
2022/09/25 10:22:38;;;;;;;7.55;5.40;;;;;;;8.28;76.28;97755.94;5093534;28;20048;-60
2022/09/25 10:25:05;;;;;;;15.75;11.30;;;;;;;8.37;76.12;97759.63;5092240;28;20039;-60
2022/09/25 10:27:35;;;;;;;17.85;10.35;;;;;;;8.41;77.11;97763.38;5092076;28;20035;-59
2022/09/25 10:30:10;;;;;;;5.50;4.03;;;;;;;8.42;75.11;97764.19;5093229;28;20500;-59
2022/09/25 10:32:52;;;;;;;5.60;4.00;;;;;;;8.31;76.85;97768.63;5092226;28;20131;-59
2022/09/25 10:35:19;;;;;;;5.65;3.90;;;;;;;8.28;77.04;97771.00;5092113;28;20438;-58
2022/09/25 10:37:49;;;;;;;8.75;5.85;;;;;;;8.34;77.29;97772.56;5093447;28;20067;-59
2022/09/25 10:40:27;;;;;;;6.28;4.25;;;;;;;8.35;76.55;97772.34;5092436;28;20040;-60
2022/09/25 10:43:14;;;;;;;3.83;3.00;;;;;;;8.30;77.47;97774.16;5093281;28;20293;-61
2022/09/25 10:45:40;;;;;;;4.05;2.92;;;;;;;8.31;77.58;97781.81;5071550;28;20048;-59
2022/09/25 10:51:17;;;;;;;6.38;3.92;;;;;;;8.30;77.64;97782.09;5090084;28;20044;-59
2022/09/25 10:53:44;;;;;;;7.07;4.45;;;;;;;8.20;77.84;97782.84;5092915;28;20055;-58
2022/09/25 10:56:14;;;;;;;3.60;3.00;;;;;;;8.14;78.46;97791.81;5093060;28;20048;-61
2022/09/25 10:58:53;;;;;;;4.22;3.35;;;;;;;8.07;78.38;97783.34;5090857;28;20044;-60
2022/09/25 11:01:20;;;;;;;3.92;2.97;;;;;;;8.02;78.25;97791.25;5092893;28;20043;-60
2022/09/25 11:03:49;;;;;;;5.03;3.60;;;;;;;8.01;78.23;97787.03;5074680;28;20135;-60
2022/09/25 11:06:33;;;;;;;5.32;3.75;;;;;;;8.03;78.83;97791.00;5092823;28;20047;-62
2022/09/25 11:09:04;;;;;;;7.72;5.70;;;;;;;8.02;78.73;97799.16;5092246;28;20044;-60
2022/09/25 11:11:30;;;;;;;5.60;3.47;;;;;;;7.96;79.35;97793.88;5091169;28;20424;-62
2022/09/25 11:13:58;;;;;;;6.10;4.10;;;;;;;8.01;79.05;97798.38;5092368;28;20123;-62
2022/09/25 11:16:45;;;;;;;3.97;3.30;;;;;;;7.93;78.60;97797.03;5091105;28;20044;-61
2022/09/25 11:19:37;;;;;;;4.80;3.42;;;;;;;7.94;79.20;97798.63;5091163;28;20055;-61
2022/09/25 11:22:30;;;;;;;7.60;5.05;;;;;;;8.02;78.53;97802.59;5087119;28;20098;-60
2022/09/25 11:25:10;;;;;;;4.80;3.42;;;;;;;8.09;77.50;97802.34;5091055;28;20098;-62
2022/09/25 11:27:57;;;;;;;10.05;5.95;;;;;;;8.17;79.02;97801.84;5074381;28;20133;-60
2022/09/25 11:30:23;;;;;;;7.57;5.20;;;;;;;8.35;78.68;97813.75;5050173;28;20076;-61
2022/09/25 11:33:10;;;;;;;7.38;4.78;;;;;;;8.47;77.19;97811.72;5090732;28;20084;-61
2022/09/25 11:35:53;;;;;;;7.55;4.95;;;;;;;8.56;76.87;97809.31;5091861;28;20064;-61
2022/09/25 11:41:35;;;;;;;9.65;5.30;;;;;;;8.58;76.38;97813.28;5090743;28;20066;-61
2022/09/25 11:44:07;;;;;;;9.05;6.00;;;;;;;8.67;77.03;97816.22;5091022;28;20124;-60
2022/09/25 11:46:49;;;;;;;7.22;4.32;;;;;;;8.77;76.04;97821.53;5092129;28;20060;-61
2022/09/25 11:49:29;;;;;;;5.18;3.97;;;;;;;8.74;75.49;97819.41;5090183;28;20552;-60
2022/09/25 11:52:05;;;;;;;5.05;4.07;;;;;;;8.69;76.40;97814.09;5092276;28;20115;-61
2022/09/25 11:54:40;;;;;;;7.82;4.78;;;;;;;8.55;76.01;97816.47;5091881;28;20101;-62
2022/09/25 11:57:10;;;;;;;8.90;4.80;;;;;;;8.56;76.64;97823.34;5092237;28;20525;-62
2022/09/25 12:00:06;;;;;;;5.72;4.00;;;;;;;8.49;75.76;97822.00;5091860;28;20039;-62
2022/09/25 12:02:53;;;;;;;6.78;4.45;;;;;;;8.51;76.76;97825.19;5090406;28;20444;-62
2022/09/25 12:05:48;;;;;;;6.55;4.85;;;;;;;8.49;77.06;97827.28;5091269;28;20350;-60
2022/09/25 12:08:43;;;;;;;9.65;4.97;;;;;;;8.51;77.19;97835.75;5091804;28;20149;-60
2022/09/25 12:11:29;;;;;;;9.05;5.28;;;;;;;8.49;77.81;97833.34;5089899;28;20489;-61
2022/09/25 12:14:01;;;;;;;5.50;4.07;;;;;;;8.45;77.82;97836.78;5090186;28;20152;-62
2022/09/25 12:16:37;;;;;;;7.30;4.30;;;;;;;8.35;77.82;97835.69;5091599;28;20479;-60